sensor_id;sensor_type;location;lat;lon;timestamp;temperature;humidity
7574;DHT22;3828;48.922;9.116;2023-05-10T00:11:06;13.70;99.90
7574;DHT22;3828;48.922;9.116;2023-05-10T00:28:19;13.30;99.90
7574;DHT22;3828;48.922;9.116;2023-05-10T00:45:32;13.20;99.90
7574;DHT22;3828;48.922;9.116;2023-05-10T00:48:01;13.20;99.90
7574;DHT22;3828;48.922;9.116;2023-05-10T00:52:56;13.20;99.90
7574;DHT22;3828;48.922;9.116;2023-05-10T00:57:52;13.10;99.90
7574;DHT22;3828;48.922;9.116;2023-05-10T01:02:48;13.10;99.90
7574;DHT22;3828;48.922;9.116;2023-05-10T01:12:39;13.00;99.90
7574;DHT22;3828;48.922;9.116;2023-05-10T01:15:08;14.50;99.90
7574;DHT22;3828;48.922;9.116;2023-05-10T01:17:38;13.10;99.90
7574;DHT22;3828;48.922;9.116;2023-05-10T01:20:09;13.20;99.90
7574;DHT22;3828;48.922;9.116;2023-05-10T01:22:58;13.10;99.90
7574;DHT22;3828;48.922;9.116;2023-05-10T01:25:43;13.10;99.90
7574;DHT22;3828;48.922;9.116;2023-05-10T01:28:49;13.10;99.90
7574;DHT22;3828;48.922;9.116;2023-05-10T01:31:30;13.10;99.90
7574;DHT22;3828;48.922;9.116;2023-05-10T01:34:03;13.10;99.90
7574;DHT22;3828;48.922;9.116;2023-05-10T01:36:39;13.10;99.90
7574;DHT22;3828;48.922;9.116;2023-05-10T01:39:11;13.20;99.90
7574;DHT22;3828;48.922;9.116;2023-05-10T01:41:44;13.10;99.90
7574;DHT22;3828;48.922;9.116;2023-05-10T01:44:20;13.10;99.90
7574;DHT22;3828;48.922;9.116;2023-05-10T01:47:00;13.10;99.90
7574;DHT22;3828;48.922;9.116;2023-05-10T01:49:32;13.20;99.90
7574;DHT22;3828;48.922;9.116;2023-05-10T01:52:03;13.20;99.90
7574;DHT22;3828;48.922;9.116;2023-05-10T01:54:33;13.10;99.90
7574;DHT22;3828;48.922;9.116;2023-05-10T01:57:05;13.10;99.90
7574;DHT22;3828;48.922;9.116;2023-05-10T01:59:35;13.10;99.90
7574;DHT22;3828;48.922;9.116;2023-05-10T02:02:08;13.10;99.90
7574;DHT22;3828;48.922;9.116;2023-05-10T02:04:40;13.00;99.90
7574;DHT22;3828;48.922;9.116;2023-05-10T02:07:08;13.10;99.90
7574;DHT22;3828;48.922;9.116;2023-05-10T02:09:36;13.00;99.90
7574;DHT22;3828;48.922;9.116;2023-05-10T02:12:05;13.00;99.90
7574;DHT22;3828;48.922;9.116;2023-05-10T02:14:35;13.00;99.90
7574;DHT22;3828;48.922;9.116;2023-05-10T02:17:04;13.10;99.90
7574;DHT22;3828;48.922;9.116;2023-05-10T02:19:32;13.00;99.90
7574;DHT22;3828;48.922;9.116;2023-05-10T02:22:02;13.00;99.90
7574;DHT22;3828;48.922;9.116;2023-05-10T02:26:57;13.10;99.90
7574;DHT22;3828;48.922;9.116;2023-05-10T02:29:25;13.00;99.90
7574;DHT22;3828;48.922;9.116;2023-05-10T02:31:54;13.10;99.90
7574;DHT22;3828;48.922;9.116;2023-05-10T02:34:23;13.00;99.90
7574;DHT22;3828;48.922;9.116;2023-05-10T02:36:52;13.10;99.90
7574;DHT22;3828;48.922;9.116;2023-05-10T02:39:21;13.10;99.90
7574;DHT22;3828;48.922;9.116;2023-05-10T02:41:49;13.10;99.90
7574;DHT22;3828;48.922;9.116;2023-05-10T02:44:18;13.10;99.90
7574;DHT22;3828;48.922;9.116;2023-05-10T02:49:15;13.10;99.90
7574;DHT22;3828;48.922;9.116;2023-05-10T02:51:47;13.10;99.90
7574;DHT22;3828;48.922;9.116;2023-05-10T02:54:19;13.10;99.90
7574;DHT22;3828;48.922;9.116;2023-05-10T02:56:51;13.10;99.90
7574;DHT22;3828;48.922;9.116;2023-05-10T03:04:14;13.10;99.90
7574;DHT22;3828;48.922;9.116;2023-05-10T03:09:08;13.20;99.90
7574;DHT22;3828;48.922;9.116;2023-05-10T03:11:47;13.20;99.90
7574;DHT22;3828;48.922;9.116;2023-05-10T03:14:39;13.20;99.90
7574;DHT22;3828;48.922;9.116;2023-05-10T03:17:11;13.20;99.90
7574;DHT22;3828;48.922;9.116;2023-05-10T03:19:46;13.30;99.90
7574;DHT22;3828;48.922;9.116;2023-05-10T03:22:24;13.30;99.90
7574;DHT22;3828;48.922;9.116;2023-05-10T03:24:54;13.30;99.90
7574;DHT22;3828;48.922;9.116;2023-05-10T03:27:22;13.30;99.90
7574;DHT22;3828;48.922;9.116;2023-05-10T03:29:53;13.30;99.90
7574;DHT22;3828;48.922;9.116;2023-05-10T03:47:05;13.30;99.90
7574;DHT22;3828;48.922;9.116;2023-05-10T04:04:15;13.40;99.90
7574;DHT22;3828;48.922;9.116;2023-05-10T04:21:27;13.40;99.90
7574;DHT22;3828;48.922;9.116;2023-05-10T04:23:54;13.50;99.90
7574;DHT22;3828;48.922;9.116;2023-05-10T04:38:38;13.40;99.90
7574;DHT22;3828;48.922;9.116;2023-05-10T04:55:49;13.30;99.90
7574;DHT22;3828;48.922;9.116;2023-05-10T05:10:31;13.40;99.90
7574;DHT22;3828;48.922;9.116;2023-05-10T05:12:59;13.50;99.90
7574;DHT22;3828;48.922;9.116;2023-05-10T05:30:11;13.80;99.90
7574;DHT22;3828;48.922;9.116;2023-05-10T05:35:05;13.90;99.90
7574;DHT22;3828;48.922;9.116;2023-05-10T05:42:27;13.90;99.90
7574;DHT22;3828;48.922;9.116;2023-05-10T05:47:22;14.00;99.90
7574;DHT22;3828;48.922;9.116;2023-05-10T05:49:49;14.00;99.90
7574;DHT22;3828;48.922;9.116;2023-05-10T06:04:35;14.10;99.90
7574;DHT22;3828;48.922;9.116;2023-05-10T06:07:02;14.10;99.90
7574;DHT22;3828;48.922;9.116;2023-05-10T06:16:50;14.20;99.90
7574;DHT22;3828;48.922;9.116;2023-05-10T06:21:45;14.20;99.90
7574;DHT22;3828;48.922;9.116;2023-05-10T06:29:06;14.30;99.90
7574;DHT22;3828;48.922;9.116;2023-05-10T06:38:55;14.60;99.90
7574;DHT22;3828;48.922;9.116;2023-05-10T06:48:44;14.90;99.90
7574;DHT22;3828;48.922;9.116;2023-05-10T06:51:11;14.90;99.90
7574;DHT22;3828;48.922;9.116;2023-05-10T06:56:06;15.00;99.90
7574;DHT22;3828;48.922;9.116;2023-05-10T07:01:03;15.00;99.90
7574;DHT22;3828;48.922;9.116;2023-05-10T07:06:00;15.10;99.90
7574;DHT22;3828;48.922;9.116;2023-05-10T07:11:00;15.10;99.90
7574;DHT22;3828;48.922;9.116;2023-05-10T07:13:28;15.20;99.90
7574;DHT22;3828;48.922;9.116;2023-05-10T07:25:45;15.60;99.90
7574;DHT22;3828;48.922;9.116;2023-05-10T07:30:40;15.70;99.90
7574;DHT22;3828;48.922;9.116;2023-05-10T07:47:52;15.80;99.90
7574;DHT22;3828;48.922;9.116;2023-05-10T07:57:42;15.60;99.90
7574;DHT22;3828;48.922;9.116;2023-05-10T08:00:11;15.60;99.90
7574;DHT22;3828;48.922;9.116;2023-05-10T08:05:07;15.60;99.90
7574;DHT22;3828;48.922;9.116;2023-05-10T08:10:02;15.70;99.90
7574;DHT22;3828;48.922;9.116;2023-05-10T08:22:19;16.00;99.90
7574;DHT22;3828;48.922;9.116;2023-05-10T08:27:13;16.10;99.90
7574;DHT22;3828;48.922;9.116;2023-05-10T08:34:35;16.10;99.90
7574;DHT22;3828;48.922;9.116;2023-05-10T08:39:34;16.20;99.90
7574;DHT22;3828;48.922;9.116;2023-05-10T08:42:03;16.40;99.90
7574;DHT22;3828;48.922;9.116;2023-05-10T08:44:32;16.40;99.90
7574;DHT22;3828;48.922;9.116;2023-05-10T08:47:02;16.30;99.90
7574;DHT22;3828;48.922;9.116;2023-05-10T08:49:31;16.40;99.90
7574;DHT22;3828;48.922;9.116;2023-05-10T08:52:02;16.50;99.90
7574;DHT22;3828;48.922;9.116;2023-05-10T08:54:31;16.60;99.90
7574;DHT22;3828;48.922;9.116;2023-05-10T09:01:54;16.50;99.90
7574;DHT22;3828;48.922;9.116;2023-05-10T09:09:17;15.80;99.90
7574;DHT22;3828;48.922;9.116;2023-05-10T09:11:45;15.80;99.90
7574;DHT22;3828;48.922;9.116;2023-05-10T09:16:40;15.90;99.90
7574;DHT22;3828;48.922;9.116;2023-05-10T09:19:07;16.00;99.90
7574;DHT22;3828;48.922;9.116;2023-05-10T09:21:35;16.20;99.90
7574;DHT22;3828;48.922;9.116;2023-05-10T09:24:03;16.20;99.90
7574;DHT22;3828;48.922;9.116;2023-05-10T09:29:00;16.40;99.90
7574;DHT22;3828;48.922;9.116;2023-05-10T09:31:43;16.50;99.90
7574;DHT22;3828;48.922;9.116;2023-05-10T09:34:15;16.80;99.90
7574;DHT22;3828;48.922;9.116;2023-05-10T09:36:51;17.10;99.90
7574;DHT22;3828;48.922;9.116;2023-05-10T09:44:16;17.50;99.90
7574;DHT22;3828;48.922;9.116;2023-05-10T09:46:49;17.70;99.90
7574;DHT22;3828;48.922;9.116;2023-05-10T09:49:16;17.70;99.90
7574;DHT22;3828;48.922;9.116;2023-05-10T09:54:12;17.90;99.90
7574;DHT22;3828;48.922;9.116;2023-05-10T09:56:58;18.00;99.90
7574;DHT22;3828;48.922;9.116;2023-05-10T09:59:28;17.90;99.90
7574;DHT22;3828;48.922;9.116;2023-05-10T10:02:00;18.10;99.90
7574;DHT22;3828;48.922;9.116;2023-05-10T10:04:28;18.20;99.90
7574;DHT22;3828;48.922;9.116;2023-05-10T10:06:59;18.20;99.90
7574;DHT22;3828;48.922;9.116;2023-05-10T10:09:28;17.80;99.90
7574;DHT22;3828;48.922;9.116;2023-05-10T10:16:52;16.70;99.90
7574;DHT22;3828;48.922;9.116;2023-05-10T10:19:19;16.70;99.90
7574;DHT22;3828;48.922;9.116;2023-05-10T10:21:46;16.90;99.90
7574;DHT22;3828;48.922;9.116;2023-05-10T10:26:41;17.10;99.90
7574;DHT22;3828;48.922;9.116;2023-05-10T10:29:19;17.50;99.90
7574;DHT22;3828;48.922;9.116;2023-05-10T10:31:55;18.20;99.90
7574;DHT22;3828;48.922;9.116;2023-05-10T10:34:26;18.70;99.90
7574;DHT22;3828;48.922;9.116;2023-05-10T10:41:51;18.30;99.90
7574;DHT22;3828;48.922;9.116;2023-05-10T10:44:36;18.20;99.90
7574;DHT22;3828;48.922;9.116;2023-05-10T10:49:51;18.00;99.90
7574;DHT22;3828;48.922;9.116;2023-05-10T10:52:23;17.90;99.90
7574;DHT22;3828;48.922;9.116;2023-05-10T10:54:53;17.80;99.90
7574;DHT22;3828;48.922;9.116;2023-05-10T10:57:21;17.40;99.90
7574;DHT22;3828;48.922;9.116;2023-05-10T11:02:43;17.00;99.90
7574;DHT22;3828;48.922;9.116;2023-05-10T11:05:44;16.90;99.90
7574;DHT22;3828;48.922;9.116;2023-05-10T11:08:13;16.70;99.90
7574;DHT22;3828;48.922;9.116;2023-05-10T11:10:50;16.90;99.90
7574;DHT22;3828;48.922;9.116;2023-05-10T11:13:27;17.00;99.90
7574;DHT22;3828;48.922;9.116;2023-05-10T11:18:25;17.10;99.90
7574;DHT22;3828;48.922;9.116;2023-05-10T11:20:56;17.30;99.90
7574;DHT22;3828;48.922;9.116;2023-05-10T11:23:28;17.40;99.90
7574;DHT22;3828;48.922;9.116;2023-05-10T11:35:46;18.30;99.90
7574;DHT22;3828;48.922;9.116;2023-05-10T11:38:13;18.60;99.90
7574;DHT22;3828;48.922;9.116;2023-05-10T11:43:09;18.90;99.90
7574;DHT22;3828;48.922;9.116;2023-05-10T11:45:37;19.00;99.90
7574;DHT22;3828;48.922;9.116;2023-05-10T11:48:04;19.00;99.90
7574;DHT22;3828;48.922;9.116;2023-05-10T11:52:59;18.40;99.90
7574;DHT22;3828;48.922;9.116;2023-05-10T12:02:48;17.80;99.90
7574;DHT22;3828;48.922;9.116;2023-05-10T12:10:12;17.30;99.90
7574;DHT22;3828;48.922;9.116;2023-05-10T12:12:41;17.20;99.90
7574;DHT22;3828;48.922;9.116;2023-05-10T12:15:11;17.10;99.90
7574;DHT22;3828;48.922;9.116;2023-05-10T12:20:13;17.00;99.90
7574;DHT22;3828;48.922;9.116;2023-05-10T12:22:44;17.00;99.90
7574;DHT22;3828;48.922;9.116;2023-05-10T12:25:12;16.80;99.90
7574;DHT22;3828;48.922;9.116;2023-05-10T12:30:08;16.50;99.90
7574;DHT22;3828;48.922;9.116;2023-05-10T12:32:39;16.50;99.90
7574;DHT22;3828;48.922;9.116;2023-05-10T12:35:07;16.60;99.90
7574;DHT22;3828;48.922;9.116;2023-05-10T12:37:34;16.80;99.90
7574;DHT22;3828;48.922;9.116;2023-05-10T12:40:06;17.00;99.90
7574;DHT22;3828;48.922;9.116;2023-05-10T12:42:34;17.20;99.90
7574;DHT22;3828;48.922;9.116;2023-05-10T12:59:47;17.40;99.90
7574;DHT22;3828;48.922;9.116;2023-05-10T13:16:58;18.00;99.90
7574;DHT22;3828;48.922;9.116;2023-05-10T13:19:26;17.90;99.90
7574;DHT22;3828;48.922;9.116;2023-05-10T13:34:11;18.30;99.90
7574;DHT22;3828;48.922;9.116;2023-05-10T13:36:38;18.30;99.90
7574;DHT22;3828;48.922;9.116;2023-05-10T13:51:22;17.60;99.90
7574;DHT22;3828;48.922;9.116;2023-05-10T14:03:37;17.60;99.90
7574;DHT22;3828;48.922;9.116;2023-05-10T14:08:34;17.60;99.90
7574;DHT22;3828;48.922;9.116;2023-05-10T14:11:01;17.60;99.90
7574;DHT22;3828;48.922;9.116;2023-05-10T14:25:46;17.60;99.90
7574;DHT22;3828;48.922;9.116;2023-05-10T14:28:13;17.60;99.90
7574;DHT22;3828;48.922;9.116;2023-05-10T14:33:07;17.60;99.90
7574;DHT22;3828;48.922;9.116;2023-05-10T14:40:29;17.40;99.90
7574;DHT22;3828;48.922;9.116;2023-05-10T14:42:57;17.30;99.90
7574;DHT22;3828;48.922;9.116;2023-05-10T14:55:12;17.70;99.90
7574;DHT22;3828;48.922;9.116;2023-05-10T15:00:08;17.80;99.90
7574;DHT22;3828;48.922;9.116;2023-05-10T15:02:35;17.70;99.90
7574;DHT22;3828;48.922;9.116;2023-05-10T15:07:29;17.80;99.90
7574;DHT22;3828;48.922;9.116;2023-05-10T15:17:19;18.10;99.90
7574;DHT22;3828;48.922;9.116;2023-05-10T15:22:14;18.30;99.90
7574;DHT22;3828;48.922;9.116;2023-05-10T15:34:30;18.00;99.90
7574;DHT22;3828;48.922;9.116;2023-05-10T15:46:46;17.70;99.90
7574;DHT22;3828;48.922;9.116;2023-05-10T15:51:41;17.60;99.90
7574;DHT22;3828;48.922;9.116;2023-05-10T16:06:24;17.50;99.90
7574;DHT22;3828;48.922;9.116;2023-05-10T16:08:52;17.50;99.90
7574;DHT22;3828;48.922;9.116;2023-05-10T16:26:03;17.00;99.90
7574;DHT22;3828;48.922;9.116;2023-05-10T16:43:14;16.90;99.90
7574;DHT22;3828;48.922;9.116;2023-05-10T16:48:10;16.80;99.90
7574;DHT22;3828;48.922;9.116;2023-05-10T17:00:31;16.70;99.90
7574;DHT22;3828;48.922;9.116;2023-05-10T17:17:44;16.30;99.90
7574;DHT22;3828;48.922;9.116;2023-05-10T17:20:11;16.30;99.90
7574;DHT22;3828;48.922;9.116;2023-05-10T17:25:08;16.20;99.90
7574;DHT22;3828;48.922;9.116;2023-05-10T17:30:03;16.10;99.90
7574;DHT22;3828;48.922;9.116;2023-05-10T17:34:58;16.00;99.90
7574;DHT22;3828;48.922;9.116;2023-05-10T17:44:46;15.60;99.90
7574;DHT22;3828;48.922;9.116;2023-05-10T17:52:08;15.50;99.90
7574;DHT22;3828;48.922;9.116;2023-05-10T18:09:27;15.30;99.90
7574;DHT22;3828;48.922;9.116;2023-05-10T18:16:49;15.10;99.90
7574;DHT22;3828;48.922;9.116;2023-05-10T18:24:10;15.00;99.90
7574;DHT22;3828;48.922;9.116;2023-05-10T18:26:38;14.90;99.90
7574;DHT22;3828;48.922;9.116;2023-05-10T18:43:52;14.80;99.90
7574;DHT22;3828;48.922;9.116;2023-05-10T19:01:04;14.40;99.90
7574;DHT22;3828;48.922;9.116;2023-05-10T19:18:14;14.20;99.90
7574;DHT22;3828;48.922;9.116;2023-05-10T19:23:08;14.10;99.90
7574;DHT22;3828;48.922;9.116;2023-05-10T19:28:03;14.00;99.90
7574;DHT22;3828;48.922;9.116;2023-05-10T19:35:29;14.10;99.90
7574;DHT22;3828;48.922;9.116;2023-05-10T19:52:42;13.90;99.90
7574;DHT22;3828;48.922;9.116;2023-05-10T19:55:10;13.80;99.90
7574;DHT22;3828;48.922;9.116;2023-05-10T20:00:05;13.80;99.90
7574;DHT22;3828;48.922;9.116;2023-05-10T20:09:56;13.80;99.90
7574;DHT22;3828;48.922;9.116;2023-05-10T20:17:17;13.70;99.90
7574;DHT22;3828;48.922;9.116;2023-05-10T20:19:44;13.70;99.90
7574;DHT22;3828;48.922;9.116;2023-05-10T20:24:38;13.70;99.90
7574;DHT22;3828;48.922;9.116;2023-05-10T20:27:06;13.60;99.90
7574;DHT22;3828;48.922;9.116;2023-05-10T20:41:49;13.50;99.90
7574;DHT22;3828;48.922;9.116;2023-05-10T20:44:18;13.50;99.90
7574;DHT22;3828;48.922;9.116;2023-05-10T20:56:33;13.20;99.90
7574;DHT22;3828;48.922;9.116;2023-05-10T21:01:28;13.20;99.90
7574;DHT22;3828;48.922;9.116;2023-05-10T21:18:39;13.40;99.90
7574;DHT22;3828;48.922;9.116;2023-05-10T21:26:01;13.30;99.90
7574;DHT22;3828;48.922;9.116;2023-05-10T21:35:51;13.20;99.90
7574;DHT22;3828;48.922;9.116;2023-05-10T21:53:02;13.00;99.90
7574;DHT22;3828;48.922;9.116;2023-05-10T21:55:29;12.90;99.90
7574;DHT22;3828;48.922;9.116;2023-05-10T21:57:57;12.90;99.90
7574;DHT22;3828;48.922;9.116;2023-05-10T22:10:14;12.80;99.90
7574;DHT22;3828;48.922;9.116;2023-05-10T22:15:08;12.70;99.90
7574;DHT22;3828;48.922;9.116;2023-05-10T22:17:36;12.60;99.90
7574;DHT22;3828;48.922;9.116;2023-05-10T22:20:04;12.50;99.90
7574;DHT22;3828;48.922;9.116;2023-05-10T22:27:27;12.50;99.90
7574;DHT22;3828;48.922;9.116;2023-05-10T22:44:37;12.20;99.90
7574;DHT22;3828;48.922;9.116;2023-05-10T23:01:50;12.30;99.90
7574;DHT22;3828;48.922;9.116;2023-05-10T23:16:33;12.00;99.90
7574;DHT22;3828;48.922;9.116;2023-05-10T23:19:01;12.00;99.90
7574;DHT22;3828;48.922;9.116;2023-05-10T23:23:55;9.40;99.90
7574;DHT22;3828;48.922;9.116;2023-05-10T23:31:18;11.90;99.90
7574;DHT22;3828;48.922;9.116;2023-05-10T23:36:13;12.00;99.90
7574;DHT22;3828;48.922;9.116;2023-05-10T23:43:34;12.00;99.90
7574;DHT22;3828;48.922;9.116;2023-05-10T23:53:25;11.90;99.90
